Time;durP1;ratioP1;P1;durP2;ratioP2;P2;SDS_P1;SDS_P2;PMS_P1;PMS_P2;Temp;Humidity;BMP_temperature;BMP_pressure;BME280_temperature;BME280_humidity;BME280_pressure;Samples;Min_cycle;Max_cycle;Signal;HPM_P1;HPM_P2
2022/08/05 00:04:44;;;;;;;12.85;2.72;;;;;;;;;;4844922;29;20053;-86
2022/08/05 00:07:11;;;;;;;6.45;2.10;;;;;;;;;;4837933;29;20054;-86
2022/08/05 00:09:37;;;;;;;6.00;1.83;;;;;;;;;;4828179;29;20093;-86
2022/08/05 00:12:28;;;;;;;6.55;1.98;;;;;;;;;;4841802;29;20053;-85
2022/08/05 00:14:57;;;;;;;9.50;1.95;;;;;;;;;;4842759;29;20458;-85
2022/08/05 00:17:26;;;;;;;6.40;2.90;;;;;;;;;;4845470;29;20049;-85
2022/08/05 00:19:52;;;;;;;10.55;1.95;;;;;;;;;;4822847;29;20046;-85
2022/08/05 00:22:22;;;;;;;7.97;1.90;;;;;;;;;;4825197;29;20058;-85
2022/08/05 00:24:48;;;;;;;4.57;1.65;;;;;;;;;;4836266;29;20057;-85
2022/08/05 00:27:23;;;;;;;6.63;1.50;;;;;;;;;;4842794;29;20072;-86
2022/08/05 00:29:49;;;;;;;6.10;1.98;;;;;;;;;;4844133;29;20089;-85
2022/08/05 00:32:15;;;;;;;5.53;2.00;;;;;;;;;;4844337;29;20038;-84
2022/08/05 00:34:48;;;;;;;8.18;2.03;;;;;;;;;;4850842;29;20500;-86
2022/08/05 00:37:14;;;;;;;6.43;2.00;;;;;;;;;;4847808;29;20057;-85
2022/08/05 00:39:49;;;;;;;7.68;2.08;;;;;;;;;;4845531;29;20045;-86
2022/08/05 00:42:35;;;;;;;7.43;2.15;;;;;;;;;;4845558;29;20057;-86
2022/08/05 00:45:05;;;;;;;4.97;2.30;;;;;;;;;;4837757;29;20049;-83
2022/08/05 00:47:41;;;;;;;3.85;1.92;;;;;;;;;;4844432;29;20034;-85
2022/08/05 00:50:08;;;;;;;7.60;1.98;;;;;;;;;;4848987;29;20056;-82
2022/08/05 00:52:34;;;;;;;7.53;1.90;;;;;;;;;;4840687;29;20042;-81
2022/08/05 00:55:00;;;;;;;6.72;1.90;;;;;;;;;;4843720;29;20132;-85
2022/08/05 00:57:28;;;;;;;5.85;1.95;;;;;;;;;;4842967;29;20046;-85
2022/08/05 01:00:13;;;;;;;4.13;1.95;;;;;;;;;;4843686;29;20046;-85
2022/08/05 01:02:39;;;;;;;6.43;2.63;;;;;;;;;;4817560;29;20057;-85
2022/08/05 01:05:05;;;;;;;10.40;2.95;;;;;;;;;;4841848;29;20070;-83
2022/08/05 01:07:43;;;;;;;6.10;2.20;;;;;;;;;;4844073;29;20054;-86
2022/08/05 01:10:13;;;;;;;6.07;2.00;;;;;;;;;;4807510;29;20046;-83
2022/08/05 01:12:43;;;;;;;7.93;2.05;;;;;;;;;;4841004;29;20112;-83
2022/08/05 01:15:10;;;;;;;8.18;2.30;;;;;;;;;;4841979;29;20050;-84
2022/08/05 01:17:55;;;;;;;7.47;1.98;;;;;;;;;;4842517;29;20046;-85
2022/08/05 01:20:40;;;;;;;5.03;1.77;;;;;;;;;;4839926;29;20901;-85
2022/08/05 01:23:13;;;;;;;3.83;1.50;;;;;;;;;;4840848;29;20406;-83
2022/08/05 01:25:57;;;;;;;6.55;1.98;;;;;;;;;;4805237;29;20104;-83
2022/08/05 01:28:27;;;;;;;4.88;1.63;;;;;;;;;;4851985;29;20042;-83
2022/08/05 01:33:30;;;;;;;8.20;2.38;;;;;;;;;;4868913;29;20061;-84
2022/08/05 01:35:58;;;;;;;4.55;1.98;;;;;;;;;;4857403;29;20046;-83
2022/08/05 01:38:25;;;;;;;6.72;1.88;;;;;;;;;;4846337;29;20045;-84
2022/08/05 01:40:52;;;;;;;7.45;2.30;;;;;;;;;;4840751;29;20045;-83
2022/08/05 01:43:37;;;;;;;8.10;2.42;;;;;;;;;;4860294;29;20564;-84
2022/08/05 01:46:10;;;;;;;3.95;1.80;;;;;;;;;;4852394;29;20045;-85
2022/08/05 01:48:38;;;;;;;7.25;2.13;;;;;;;;;;4860680;29;20042;-84
2022/08/05 01:51:05;;;;;;;5.28;1.80;;;;;;;;;;4834393;29;20049;-82
2022/08/05 01:53:38;;;;;;;5.25;2.10;;;;;;;;;;4837369;29;20041;-85
2022/08/05 01:56:05;;;;;;;4.53;1.80;;;;;;;;;;4841361;29;20519;-84
2022/08/05 01:58:33;;;;;;;5.95;2.15;;;;;;;;;;4857046;29;20526;-84
2022/08/05 02:01:00;;;;;;;7.85;2.28;;;;;;;;;;4840441;29;20052;-85
2022/08/05 02:03:46;;;;;;;5.13;1.63;;;;;;;;;;4842129;29;20050;-84
2022/08/05 02:06:18;;;;;;;5.80;1.70;;;;;;;;;;4859364;29;20050;-85
2022/08/05 02:08:48;;;;;;;7.95;1.60;;;;;;;;;;4839520;29;20102;-85
2022/08/05 02:11:16;;;;;;;6.93;1.75;;;;;;;;;;4858549;29;20061;-84
2022/08/05 02:13:58;;;;;;;3.58;1.75;;;;;;;;;;4840958;29;20064;-84
2022/08/05 02:16:27;;;;;;;4.78;1.80;;;;;;;;;;4839865;29;20049;-83
2022/08/05 02:18:58;;;;;;;4.60;1.27;;;;;;;;;;4854302;29;20045;-86
2022/08/05 02:21:26;;;;;;;3.25;1.73;;;;;;;;;;4837358;29;20038;-82
2022/08/05 02:23:54;;;;;;;7.55;2.03;;;;;;;;;;4854537;29;20107;-86
2022/08/05 02:26:22;;;;;;;3.85;1.58;;;;;;;;;;4853236;29;20050;-84
2022/08/05 02:28:49;;;;;;;5.10;1.70;;;;;;;;;;4843058;29;20034;-83
2022/08/05 02:31:18;;;;;;;5.55;1.63;;;;;;;;;;4855263;29;20162;-84
2022/08/05 02:33:59;;;;;;;4.95;1.50;;;;;;;;;;4852210;29;20060;-83
2022/08/05 02:36:29;;;;;;;6.72;1.88;;;;;;;;;;4857638;29;20045;-84
2022/08/05 02:38:56;;;;;;;10.23;2.03;;;;;;;;;;4855258;29;20049;-83
2022/08/05 02:41:23;;;;;;;7.53;2.22;;;;;;;;;;4859448;29;20045;-85
2022/08/05 02:43:51;;;;;;;5.55;1.88;;;;;;;;;;4863285;29;20097;-81
2022/08/05 02:46:17;;;;;;;6.07;1.70;;;;;;;;;;4857760;29;20047;-80
2022/08/05 02:48:44;;;;;;;8.70;2.22;;;;;;;;;;4869127;29;20022;-83
2022/08/05 02:51:29;;;;;;;6.78;2.20;;;;;;;;;;4860863;29;20049;-86
2022/08/05 02:53:55;;;;;;;5.40;1.92;;;;;;;;;;4860545;29;20049;-83
2022/08/05 02:56:21;;;;;;;6.93;1.90;;;;;;;;;;4862433;29;20060;-85
2022/08/05 02:59:12;;;;;;;5.18;1.88;;;;;;;;;;4864606;23;20146;-85
2022/08/05 03:02:16;;;;;;;4.82;1.65;;;;;;;;;;4855470;29;20033;-84
2022/08/05 03:05:07;;;;;;;7.07;2.60;;;18.60;99.90;;;;;;4849316;29;20056;-83
2022/08/05 03:07:34;;;;;;;4.50;1.77;;;;;;;;;;4832826;29;20053;-84
2022/08/05 03:10:19;;;;;;;5.63;2.30;;;;;;;;;;4848601;29;20538;-86
2022/08/05 03:12:48;;;;;;;6.00;1.83;;;;;;;;;;4852098;29;20056;-85
2022/08/05 03:15:14;;;;;;;3.17;1.58;;;;;;;;;;4851391;29;20061;-82
2022/08/05 03:17:44;;;;;;;5.28;1.73;;;;;;;;;;4848889;29;20052;-85
2022/08/05 03:20:13;;;;;;;7.22;1.73;;;;;;;;;;4849393;29;20492;-83
2022/08/05 03:22:39;;;;;;;5.05;2.22;;;;;;;;;;4836570;29;20050;-84
2022/08/05 03:25:08;;;;;;;6.90;1.70;;;;;;;;;;4845823;29;20057;-81
2022/08/05 03:27:34;;;;;;;4.85;2.20;;;;;;;;;;4835471;29;20060;-82
2022/08/05 03:30:19;;;;;;;5.50;1.95;;;;;;;;;;4860691;29;20094;-82
2022/08/05 03:32:56;;;;;;;5.05;2.00;;;;;;;;;;4859586;29;20068;-83
2022/08/05 03:35:22;;;;;;;3.38;1.63;;;;;;;;;;4846151;29;20049;-83
2022/08/05 03:37:48;;;;;;;3.60;2.05;;;;;;;;;;4849042;29;20053;-83
2022/08/05 03:40:20;;;;;;;4.82;1.85;;;;;;;;;;4872682;29;20050;-83
2022/08/05 03:43:03;;;;;;;8.70;2.38;;;;;;;;;;4865107;29;20049;-82
2022/08/05 03:45:29;;;;;;;5.63;2.20;;;;;;;;;;4843971;29;20406;-83
2022/08/05 03:47:55;;;;;;;5.40;2.25;;;;;;;;;;4829340;29;20092;-83
2022/08/05 03:50:28;;;;;;;5.28;1.95;;;;;;;;;;4848483;29;20042;-84
2022/08/05 03:52:54;;;;;;;3.87;2.20;;;;;;;;;;4849748;29;20515;-84
2022/08/05 03:55:35;;;;;;;4.65;2.20;;;;;;;;;;4860769;29;20135;-82
2022/08/05 03:58:16;;;;;;;5.47;2.22;;;;;;;;;;4862668;29;20140;-83
2022/08/05 04:00:44;;;;;;;5.63;2.25;;;;;;;;;;4826273;29;20055;-83
2022/08/05 04:03:12;;;;;;;9.05;2.80;;;;;;;;;;4823542;29;20035;-83
2022/08/05 04:05:51;;;;;;;4.55;2.40;;;;;;;;;;4814796;29;20054;-82
2022/08/05 04:08:17;;;;;;;5.47;2.22;;;;;;;;;;4811455;29;20050;-83
2022/08/05 04:13:59;;;;;;;6.82;2.33;;;;;;;;;;4815021;29;20058;-85
2022/08/05 04:16:38;;;;;;;5.95;2.50;;;;;;;;;;4818853;29;20062;-84
2022/08/05 04:19:25;;;;;;;4.70;2.50;;;;;;;;;;4817002;29;20058;-84
2022/08/05 04:21:59;;;;;;;10.00;3.55;;;;;;;;;;4809420;29;20086;-84
2022/08/05 04:24:25;;;;;;;3.00;2.45;;;;;;;;;;4813121;29;20085;-82
2022/08/05 04:26:52;;;;;;;7.88;3.13;;;;;;;;;;4813314;29;20054;-82
2022/08/05 04:29:18;;;;;;;9.35;3.47;;;;;;;;;;4806589;29;20622;-83
2022/08/05 04:31:44;;;;;;;4.65;2.90;;;;;;;;;;4808276;29;20081;-83
2022/08/05 04:34:13;;;;;;;6.72;3.28;;;;;;;;;;4811531;29;20096;-85
2022/08/05 04:36:39;;;;;;;4.72;2.88;;;;;;;;;;4811045;29;20058;-83
2022/08/05 04:39:11;;;;;;;5.65;2.88;;;;;;;;;;4811010;29;20078;-84
2022/08/05 04:44:33;;;;;;;6.78;2.67;;;;;;;;;;4950850;24;20058;-85
2022/08/05 04:46:59;;;;;;;4.57;2.58;;;;;;;;;;4820208;29;20098;-82
2022/08/05 04:49:26;;;;;;;8.20;2.97;;;;;;;;;;4824012;29;20046;-85
2022/08/05 04:51:52;;;;;;;8.52;3.05;;;;;;;;;;4807617;29;20043;-83
2022/08/05 04:54:18;;;;;;;6.43;2.85;;;;;;;;;;4808191;29;20051;-81
2022/08/05 04:56:46;;;;;;;6.78;2.92;;;;;;;;;;4802874;29;20062;-84
2022/08/05 04:59:27;;;;;;;4.05;2.63;;;;;;;;;;4790349;29;20077;-84
2022/08/05 05:01:54;;;;;;;9.13;3.20;;;;;;;;;;4819590;29;20054;-84
2022/08/05 05:04:38;;;;;;;5.30;2.55;;;18.20;99.90;;;;;;4816289;29;20054;-81
2022/08/05 05:07:04;;;;;;;7.13;2.53;;;;;;;;;;4824141;29;20072;-83
2022/08/05 05:16:15;;;;;;;4.07;2.20;;;;;;;;;;4828513;29;20082;-83
2022/08/05 05:18:42;;;;;;;4.72;2.42;;;;;;;;;;4821568;29;20051;-82
2022/08/05 05:21:09;;;;;;;4.00;2.58;;;;;;;;;;4819196;23;20054;-82
2022/08/05 05:23:35;;;;;;;4.63;2.00;;;;;;;;;;4823711;29;20069;-83
2022/08/05 05:26:01;;;;;;;6.82;2.35;;;;;;;;;;4828059;29;20076;-84
2022/08/05 05:28:36;;;;;;;4.30;2.70;;;;;;;;;;4846013;29;20049;-85
2022/08/05 05:31:07;;;;;;;5.15;2.50;;;;;;;;;;4845053;29;20041;-84
2022/08/05 05:33:33;;;;;;;4.00;2.60;;;;;;;;;;4830024;29;20050;-83
2022/08/05 05:36:00;;;;;;;3.03;2.28;;;;;;;;;;4836719;29;20042;-84
2022/08/05 05:45:18;;;;;;;7.82;2.50;;;;;;;;;;4853772;23;20159;-81
2022/08/05 05:51:20;;;;;;;6.47;2.50;;;;;;;;;;4807166;29;20050;-84
2022/08/05 05:53:47;;;;;;;6.22;2.50;;;;;;;;;;4815520;24;20050;-83
2022/08/05 05:59:38;;;;;;;10.35;3.20;;;;;;;;;;4809563;24;20084;-82
2022/08/05 06:02:07;;;;;;;4.60;2.78;;;;;;;;;;4822009;29;20068;-84
2022/08/05 06:04:33;;;;;;;5.65;3.13;;;;;;;;;;4812214;29;20042;-83
2022/08/05 06:07:20;;;;;;;6.53;2.50;;;;;;;;;;4806403;29;20078;-83
2022/08/05 06:09:46;;;;;;;6.03;2.92;;;;;;;;;;4815827;29;20051;-82
2022/08/05 06:15:16;;;;;;;8.30;2.53;;;;;;;;;;4830123;24;20162;-84
2022/08/05 06:17:45;;;;;;;4.43;2.40;;;;;;;;;;4816953;29;20421;-84
2022/08/05 06:20:11;;;;;;;4.80;2.40;;;;;;;;;;4812412;29;20046;-81
2022/08/05 06:22:37;;;;;;;8.45;2.65;;;;;;;;;;4824607;29;20055;-83
2022/08/05 06:25:06;;;;;;;6.47;2.40;;;;;;;;;;4804422;29;20039;-83
2022/08/05 06:27:36;;;;;;;4.13;1.90;;;;;;;;;;4813616;29;20043;-81
2022/08/05 06:30:03;;;;;;;6.03;2.28;;;;;;;;;;4816178;29;20057;-83
2022/08/05 06:32:29;;;;;;;5.97;2.20;;;;;;;;;;4814809;29;20038;-84
2022/08/05 06:35:04;;;;;;;4.68;1.90;;;;;;;;;;4812673;29;20039;-85
2022/08/05 06:37:51;;;;;;;4.38;1.75;;;;;;;;;;4810773;29;20051;-83
2022/08/05 06:40:17;;;;;;;6.32;1.90;;;;;;;;;;4808022;29;20102;-84
2022/08/05 06:42:43;;;;;;;3.70;1.13;;;;;;;;;;4810662;29;20047;-83
2022/08/05 06:45:09;;;;;;;3.25;1.00;;;;;;;;;;4810370;29;20102;-83
2022/08/05 06:47:36;;;;;;;7.80;1.63;;;;;;;;;;4814266;29;20077;-83
2022/08/05 06:50:02;;;;;;;3.63;1.25;;;;;;;;;;4790522;29;20039;-84
2022/08/05 06:52:28;;;;;;;7.93;1.40;;;;;;;;;;4816867;29;20083;-83
2022/08/05 06:54:54;;;;;;;4.53;1.40;;;;;;;;;;4812085;29;20058;-84
2022/08/05 06:57:20;;;;;;;4.63;1.20;;;;;;;;;;4807423;29;20045;-85
2022/08/05 06:59:46;;;;;;;8.50;1.20;;;;;;;;;;4810482;29;20084;-85
2022/08/05 07:02:12;;;;;;;7.82;1.95;;;;;;;;;;4810188;29;20067;-84
2022/08/05 07:04:38;;;;;;;2.25;0.88;;;;;;;;;;4794812;29;20119;-83
2022/08/05 07:07:04;;;;;;;1.58;0.65;;;;;;;;;;4814888;29;20046;-84
2022/08/05 07:09:31;;;;;;;4.53;1.13;;;;;;;;;;4813283;29;20042;-82
2022/08/05 07:11:57;;;;;;;5.00;1.38;;;;;;;;;;4823030;29;20047;-85
2022/08/05 07:17:08;;;;;;;8.20;1.58;;;;;;;;;;4818715;29;20046;-83
2022/08/05 07:19:34;;;;;;;4.95;1.20;;;;;;;;;;4800556;29;20448;-82
2022/08/05 07:22:00;;;;;;;2.90;1.17;;;;;;;;;;4817139;29;20077;-84
2022/08/05 07:24:26;;;;;;;6.88;1.42;;;;;;;;;;4800798;29;20503;-83
2022/08/05 07:26:53;;;;;;;9.13;1.30;;;;;;;;;;4824113;29;20066;-82
2022/08/05 07:29:48;;;;;;;4.30;1.20;;;;;;;;;;4816889;29;20042;-86
2022/08/05 07:39:02;;;;;;;6.45;1.50;;;;;;;;;;4767391;30;20058;-83
2022/08/05 07:41:28;;;;;;;2.85;1.20;;;;;;;;;;4754131;30;20210;-81
2022/08/05 07:43:55;;;;;;;2.05;0.80;;;;;;;;;;4775053;30;20152;-80
2022/08/05 07:46:21;;;;;;;6.18;1.20;;;;;;;;;;4745019;30;20079;-81
2022/08/05 07:48:57;;;;;;;3.35;0.90;;;;;;;;;;4743239;30;20084;-82
2022/08/05 07:51:23;;;;;;;2.05;1.05;;;;;;;;;;4754710;30;20048;-84
2022/08/05 07:53:50;;;;;;;4.55;1.05;;;;;;;;;;4773752;30;20454;-84
2022/08/05 07:56:16;;;;;;;2.22;1.08;;;;;;;;;;4779719;30;20385;-82
2022/08/05 07:58:42;;;;;;;4.57;1.13;;;;;;;;;;4776612;30;20099;-83
2022/08/05 08:01:08;;;;;;;3.53;1.20;;;;;;;;;;4764299;30;20052;-82
2022/08/05 08:03:34;;;;;;;3.47;1.05;;;;;;;;;;4768150;30;20037;-82
2022/08/05 08:06:00;;;;;;;1.85;0.88;;;;;;;;;;4762666;30;20080;-83
2022/08/05 08:08:26;;;;;;;3.72;0.80;;;;;;;;;;4772124;29;20108;-83
2022/08/05 08:10:54;;;;;;;2.78;0.80;;;;;;;;;;4766514;30;20054;-83
2022/08/05 08:13:30;;;;;;;2.13;0.80;;;;;;;;;;4765848;30;20051;-81
2022/08/05 08:15:56;;;;;;;3.97;0.85;;;;;;;;;;4771630;30;20602;-81
2022/08/05 08:18:23;;;;;;;3.58;1.23;;;;;;;;;;4758873;30;20080;-83
2022/08/05 08:20:50;;;;;;;3.92;1.00;;;;;;;;;;4769625;30;20117;-83
2022/08/05 08:23:19;;;;;;;5.03;1.27;;;;;;;;;;4765705;30;20051;-84
2022/08/05 08:25:45;;;;;;;4.63;0.90;;;;;;;;;;4771069;30;20542;-84
2022/08/05 08:28:27;;;;;;;2.53;0.80;;;;;;;;;;4759672;30;20060;-84
2022/08/05 08:30:53;;;;;;;4.45;1.20;;;;;;;;;;4758216;30;20052;-83
2022/08/05 08:33:44;;;;;;;4.00;1.20;;;;;;;;;;4768421;29;20146;-82
2022/08/05 08:36:10;;;;;;;3.55;1.15;;;;;;;;;;4766951;30;20148;-83
2022/08/05 08:38:39;;;;;;;5.78;1.40;;;;;;;;;;4769505;30;20067;-84
2022/08/05 08:41:26;;;;;;;2.42;0.85;;;;;;;;;;4767158;30;20058;-83
2022/08/05 08:44:07;;;;;;;6.18;1.20;;;;;;;;;;4755519;30;20040;-81
2022/08/05 08:46:33;;;;;;;4.93;0.93;;;;;;;;;;4770831;30;20129;-81
2022/08/05 08:49:02;;;;;;;4.18;1.20;;;;;;;;;;4757088;30;20082;-84
2022/08/05 08:51:38;;;;;;;6.72;1.10;;;;;;;;;;4756370;30;20051;-84
2022/08/05 08:54:10;;;;;;;7.00;1.17;;;;;;;;;;4768369;30;20158;-82
2022/08/05 08:56:46;;;;;;;4.85;1.17;;;;;;;;;;4756479;30;20051;-83
2022/08/05 08:59:45;;;;;;;2.83;1.15;;;;;;;;;;4776861;30;20109;-83
2022/08/05 09:02:20;;;;;;;4.35;1.27;;;;;;;;;;4762041;30;20060;-84
2022/08/05 09:04:47;;;;;;;4.40;1.00;;;;;;;;;;4774266;30;20056;-83
2022/08/05 09:07:13;;;;;;;4.22;1.55;;;;;;;;;;4769030;30;20393;-82
2022/08/05 09:09:39;;;;;;;6.35;1.10;;;;;;;;;;4765434;30;20130;-82
2022/08/05 09:12:13;;;;;;;5.13;1.17;;;;;;;;;;4773221;30;20132;-83
2022/08/05 09:14:39;;;;;;;4.07;1.02;;;;;;;;;;4770908;29;20063;-81
2022/08/05 09:17:11;;;;;;;5.30;1.20;;;;;;;;;;4758114;30;20056;-84
2022/08/05 09:19:37;;;;;;;7.80;1.38;;;;;;;;;;4757498;30;20103;-83
2022/08/05 09:22:03;;;;;;;6.18;1.50;;;;;;;;;;4762116;30;20086;-83
2022/08/05 09:24:31;;;;;;;6.70;1.40;;;;;;;;;;4766636;30;20044;-83
2022/08/05 09:26:58;;;;;;;4.22;1.00;;;;;;;;;;4779082;30;20044;-83
2022/08/05 09:29:47;;;;;;;4.80;1.17;;;;;;;;;;4780419;30;20103;-84
2022/08/05 09:32:14;;;;;;;2.78;0.80;;;;;;;;;;4789828;29;20045;-83
2022/08/05 09:34:47;;;;;;;4.72;1.00;;;;;;;;;;4779284;29;20093;-82
2022/08/05 09:37:17;;;;;;;4.90;1.00;;;;;;;;;;4762292;30;20063;-83
2022/08/05 09:39:45;;;;;;;4.72;0.75;;;;;;;;;;4776704;30;20082;-83
2022/08/05 09:42:11;;;;;;;4.07;0.77;;;;;;;;;;4784777;30;20043;-81
2022/08/05 09:44:41;;;;;;;5.28;1.00;;;;;;;;;;4780464;30;20050;-82
2022/08/05 09:47:17;;;;;;;3.50;0.77;;;;;;;;;;4766369;30;20079;-81
2022/08/05 09:49:54;;;;;;;2.60;0.73;;;;;;;;;;4786391;29;20324;-83
2022/08/05 09:52:20;;;;;;;3.83;0.70;;;;;;;;;;4784155;29;20087;-82
2022/08/05 09:54:53;;;;;;;2.22;0.65;;;;;;;;;;4773394;30;20051;-84
2022/08/05 09:57:29;;;;;;;2.80;0.80;;;;;;;;;;4770514;30;20075;-82
2022/08/05 10:00:09;;;;;;;5.05;1.02;;;;;;;;;;4761832;30;20105;-83
2022/08/05 10:02:40;;;;;;;4.18;0.68;;;;;;;;;;4761943;30;20058;-83
2022/08/05 10:05:09;;;;;;;4.20;0.93;;;;;;;;;;4765491;30;20047;-82
2022/08/05 10:07:42;;;;;;;2.30;0.60;;;;;;;;;;4756850;30;20113;-81
2022/08/05 10:10:09;;;;;;;5.30;0.73;;;;;;;;;;4756709;30;20048;-81
2022/08/05 10:12:49;;;;;;;2.78;0.50;;;;;;;;;;4756015;30;20549;-81
2022/08/05 10:15:35;;;;;;;1.75;0.60;;;;;;;;;;4755111;30;20103;-83
2022/08/05 10:18:35;;;;;;;1.98;0.65;;;;;;;;;;4775596;29;20179;-84
2022/08/05 10:21:17;;;;;;;6.07;0.80;;;;;;;;;;4768372;30;20055;-83
2022/08/05 10:23:44;;;;;;;1.83;0.52;;;;;;;;;;4769705;30;20518;-83
2022/08/05 10:26:11;;;;;;;4.28;0.50;;;;;;;;;;4758758;30;20051;-82
2022/08/05 10:28:37;;;;;;;4.40;0.52;;;;;;;;;;4776411;29;20433;-83
2022/08/05 10:31:03;;;;;;;7.90;2.17;;;;;;;;;;4764313;30;20052;-81
2022/08/05 10:33:30;;;;;;;1.52;0.50;;;;;;;;;;4772558;29;20118;-83
2022/08/05 10:35:57;;;;;;;1.42;0.40;;;;;;;;;;4768025;29;20118;-80
2022/08/05 10:38:43;;;;;;;3.25;0.60;;;;;;;;;;4779932;30;20047;-82
2022/08/05 10:41:09;;;;;;;2.28;0.47;;;;;;;;;;4784195;29;20389;-86
2022/08/05 10:43:44;;;;;;;1.95;0.50;;;;;;;;;;4770484;30;20043;-80
2022/08/05 10:49:15;;;;;;;1.77;0.40;;;;;;;;;;4759863;30;20111;-84
2022/08/05 10:55:23;;;;;;;1.60;0.40;;;;;;;;;;4729882;30;20063;-80
2022/08/05 10:58:06;;;;;;;4.30;0.50;;;;;;;;;;4746864;30;20052;-80
2022/08/05 11:00:32;;;;;;;3.50;0.45;;;;;;;;;;4756336;30;20044;-80
2022/08/05 11:03:10;;;;;;;3.33;0.40;;;;;;;;;;4764433;30;20044;-80
2022/08/05 11:05:37;;;;;;;7.93;0.65;;;;;;;;;;4753211;30;20535;-80
2022/08/05 11:08:08;;;;;;;0.93;0.40;;;;;;;;;;4749314;30;20051;-80
2022/08/05 11:10:44;;;;;;;4.35;0.40;;;;;;;;;;4752599;30;20063;-80
2022/08/05 11:13:30;;;;;;;7.55;0.60;;;;;;;;;;4745431;30;20040;-80
2022/08/05 11:16:16;;;;;;;3.70;0.50;;;;;;;;;;4759722;30;20047;-80
2022/08/05 11:18:42;;;;;;;2.80;0.43;;;;;;;;;;4750416;30;20063;-79
2022/08/05 11:33:46;;;;;;;3.88;0.45;;;;;;;;;;4815340;29;20073;-80
2022/08/05 11:36:14;;;;;;;3.75;0.55;;;;;;;;;;4797775;29;20058;-80
2022/08/05 11:38:40;;;;;;;2.53;0.40;;;;;;;;;;4816888;29;20530;-81
2022/08/05 11:41:21;;;;;;;4.03;0.50;;;;;;;;;;4826030;29;20046;-80
2022/08/05 11:44:18;;;;;;;8.27;0.60;;;;;;;;;;4817194;29;20460;-80
2022/08/05 11:46:49;;;;;;;2.25;0.47;;;;;;;;;;4802664;29;20046;-80
2022/08/05 11:49:33;;;;;;;3.88;0.52;;;;;;;;;;4797028;29;20054;-80
2022/08/05 11:52:11;;;;;;;3.75;0.45;;;;;;;;;;4796505;29;20560;-79
2022/08/05 11:54:38;;;;;;;2.13;0.40;;;;;;;;;;4796132;29;20038;-80
2022/08/05 11:57:10;;;;;;;4.20;0.73;;;;;;;;;;4801785;29;20088;-81
2022/08/05 11:59:37;;;;;;;1.33;0.40;;;;;;;;;;4799376;29;20137;-81
2022/08/05 12:02:09;;;;;;;1.50;0.52;;;;;;;;;;4803757;29;20047;-81
2022/08/05 12:04:48;;;;;;;3.70;0.65;;;;;;;;;;4801012;29;20134;-80
2022/08/05 12:07:24;;;;;;;8.60;0.85;;;;;;;;;;4800280;29;20063;-80
2022/08/05 12:09:58;;;;;;;1.20;0.50;;;;;;;;;;4785958;29;20074;-81
2022/08/05 12:12:37;;;;;;;2.42;0.50;;;;;;;;;;4800452;29;20055;-81
2022/08/05 12:15:03;;;;;;;1.60;0.43;;;;;;;;;;4799779;29;20051;-80
2022/08/05 12:21:14;;;;;;;5.22;0.50;;;23.40;99.90;;;;;;4814858;29;20045;-79
2022/08/05 12:23:54;;;;;;;3.03;0.65;;;;;;;;;;4820621;29;20046;-80
2022/08/05 12:26:20;;;;;;;2.67;0.68;;;;;;;;;;4816888;29;20073;-79
2022/08/05 12:29:05;;;;;;;6.55;0.55;;;;;;;;;;4801161;29;20107;-79
2022/08/05 12:31:32;;;;;;;4.78;0.85;;;;;;;;;;4816693;29;20496;-78
2022/08/05 12:34:02;;;;;;;2.20;0.30;;;;;;;;;;4812060;29;20038;-78
2022/08/05 12:36:31;;;;;;;1.63;0.68;;;;;;;;;;4782959;29;20504;-77
2022/08/05 12:38:58;;;;;;;4.68;0.63;;;;;;;;;;4812988;29;20074;-79
2022/08/05 12:41:32;;;;;;;4.35;0.60;;;;;;;;;;4812119;29;20403;-78
2022/08/05 12:44:06;;;;;;;3.42;0.55;;;;;;;;;;4808810;29;20046;-79
2022/08/05 12:49:13;;;;;;;5.32;0.80;;;;;;;;;;4816070;29;20116;-81
2022/08/05 12:51:46;;;;;;;2.55;0.63;;;;;;;;;;4796978;29;20053;-81
2022/08/05 12:54:26;;;;;;;1.65;0.30;;;;;;;;;;4819318;29;20522;-80
2022/08/05 12:57:00;;;;;;;2.25;0.40;;;;;;;;;;4797580;29;20452;-81
2022/08/05 12:59:45;;;;;;;5.63;0.32;;;;;;;;;;4801432;29;20054;-81
2022/08/05 13:02:12;;;;;;;4.70;0.60;;;;;;;;;;4800657;29;20054;-81
2022/08/05 13:04:39;;;;;;;1.35;0.50;;;;;;;;;;4819135;29;20038;-79
2022/08/05 13:07:06;;;;;;;2.03;0.60;;;;;;;;;;4805742;29;20062;-80
2022/08/05 13:09:33;;;;;;;2.63;0.50;;;;;;;;;;4832798;24;20618;-80
2022/08/05 13:14:53;;;;;;;2.58;0.40;;;;;;;;;;4824033;24;20057;-79
2022/08/05 13:24:32;;;;;;;4.65;0.60;;;;;;;;;;4828331;29;20057;-81
2022/08/05 13:27:23;;;;;;;4.88;0.50;;;;;;;;;;4805881;29;20071;-80
2022/08/05 13:34:01;;;;;;;2.40;0.50;;;;;;;;;;4816267;29;20099;-80
2022/08/05 13:36:56;;;;;;;3.58;0.50;;;;;;;;;;4807707;29;20054;-80
2022/08/05 13:39:22;;;;;;;7.95;0.63;;;;;;;;;;4807217;29;20587;-80
2022/08/05 13:41:48;;;;;;;5.78;0.90;;;;;;;;;;4817841;29;20054;-80
2022/08/05 13:44:15;;;;;;;5.75;0.82;;;;;;;;;;4817025;29;20452;-79
2022/08/05 13:50:05;;;;;;;3.05;0.63;;;;;;;;;;4815779;29;20053;-80
2022/08/05 14:06:14;;;;;;;2.25;0.40;;;;;;;;;;4796033;29;20122;-79
2022/08/05 14:12:03;;;;;;;2.25;0.75;;;;;;;;;;4801417;24;20157;-80
2022/08/05 14:14:29;;;;;;;4.13;0.43;;;;;;;;;;4789891;29;20127;-80
2022/08/05 14:16:56;;;;;;;2.78;0.50;;;;;;;;;;4785696;29;20043;-79
2022/08/05 14:19:50;;;;;;;25.65;2.20;;;;;;;;;;4796829;29;20133;-81
2022/08/05 14:28:31;;;;;;;13.20;1.38;;;;;;;;;;4822175;23;20604;-81
2022/08/05 14:30:58;;;;;;;16.40;1.90;;;;;;;;;;4815073;29;20176;-79
2022/08/05 14:33:36;;;;;;;8.60;1.05;;;;;;;;;;4814807;29;20078;-80
2022/08/05 14:36:03;;;;;;;11.77;1.10;;;;;;;;;;4820539;29;20062;-81
2022/08/05 14:38:51;;;;;;;4.72;0.90;;;;;;;;;;4822346;29;20046;-81
2022/08/05 14:41:17;;;;;;;10.35;1.10;;;;;;;;;;4819198;29;20135;-80
2022/08/05 14:43:43;;;;;;;3.72;0.60;;;;;;;;;;4813791;29;20050;-81
2022/08/05 14:46:31;;;;;;;5.10;0.77;;;;;;;;;;4815228;29;20094;-80
2022/08/05 14:48:57;;;;;;;8.25;1.10;;;;;;;;;;4816559;29;20058;-82
2022/08/05 14:51:54;;;;;;;2.75;0.68;;;;;;;;;;4820807;29;20050;-80
2022/08/05 14:54:20;;;;;;;8.10;0.85;;;;;;;;;;4819325;29;20412;-80
2022/08/05 14:56:50;;;;;;;4.75;0.88;;;;;;;;;;4813876;29;20046;-81
2022/08/05 14:59:17;;;;;;;12.23;0.90;;;;;;;;;;4822586;29;20110;-79
2022/08/05 15:02:03;;;;;;;11.05;0.90;;;;;;;;;;4803194;29;20047;-81
2022/08/05 15:04:30;;;;;;;4.35;0.70;;;;;;;;;;4815833;29;20039;-81
2022/08/05 15:07:01;;;;;;;7.07;0.90;;;;;;;;;;4816423;29;20566;-82
2022/08/05 15:12:31;;;;;;;3.45;0.70;;;;;;;;;;4813361;29;20085;-80
2022/08/05 15:18:20;;;;;;;3.28;0.60;;;;;;;;;;4815548;29;20049;-81
2022/08/05 15:20:46;;;;;;;8.05;0.70;;;;;;;;;;4821533;29;20072;-82
2022/08/05 15:26:35;;;;;;;8.48;0.93;;;;;;;;;;4830505;29;20045;-82
2022/08/05 15:29:01;;;;;;;3.13;0.60;;;;;;;;;;4810483;29;20062;-81
2022/08/05 15:34:06;;;;;;;1.27;0.40;;;;;;;;;;4829486;24;20131;-81
2022/08/05 15:57:26;;;;;;;3.30;0.60;;;;;;;;;;4814190;29;20065;-80
2022/08/05 15:59:55;;;;;;;2.10;0.52;;;;;;;;;;4790874;29;20107;-81
2022/08/05 16:05:45;;;;;;;6.38;5.40;;;;;;;;;;4939554;24;20055;-80
2022/08/05 16:08:11;;;;;;;2.75;0.60;;;;;;;;;;4821035;29;20138;-80
2022/08/05 16:17:15;;;;;;;2.53;0.47;;;;;;;;;;4817453;29;20141;-81
2022/08/05 16:19:42;;;;;;;0.75;0.30;;;;;;;;;;4815921;29;20038;-80
2022/08/05 16:24:49;;;;;;;5.22;0.50;;;;;;;;;;4818368;24;20202;-81
2022/08/05 16:27:15;;;;;;;1.88;0.57;;;;;;;;;;4798471;29;20404;-81
2022/08/05 16:29:42;;;;;;;2.75;0.60;;;;;;;;;;4817021;29;20042;-81
2022/08/05 16:32:08;;;;;;;1.38;0.30;;;;;;;;;;4817661;29;20050;-80
2022/08/05 16:34:34;;;;;;;1.40;0.70;;;;;;;;;;4818582;29;20500;-81
2022/08/05 16:37:00;;;;;;;9.45;0.50;;;;;;;;;;4812151;29;20103;-81
2022/08/05 16:39:26;;;;;;;4.10;0.70;;;;;;;;;;4808908;29;20058;-82
2022/08/05 16:45:12;;;;;;;2.05;0.50;;;;;;;;;;4818707;29;20053;-82
2022/08/05 16:47:58;;;;;;;7.22;0.60;;;;;;;;;;4798990;29;20046;-81
2022/08/05 16:50:24;;;;;;;3.47;0.60;;;;;;;;;;4805808;24;20423;-82
2022/08/05 16:52:51;;;;;;;1.10;0.60;;;;;;;;;;4807329;29;20126;-82
2022/08/05 16:59:01;;;;;;;5.72;0.75;;;;;;;;;;4797051;29;20063;-80
2022/08/05 17:10:46;;;;;;;3.03;0.50;;;;;;;;;;4816202;29;19987;-81
2022/08/05 17:16:37;;;;;;;6.07;0.50;;;;;;;;;;4841134;23;20066;-82
2022/08/05 17:19:06;;;;;;;4.10;0.73;;;;;;;;;;4799968;29;20058;-80
2022/08/05 17:21:37;;;;;;;1.58;0.55;;;;;;;;;;4785700;29;20067;-80
2022/08/05 17:31:24;;;;;;;2.05;0.45;;;;;;;;;;4809894;29;20069;-80
2022/08/05 17:41:39;;;;;;;2.75;0.40;;;;;;;;;;4808701;24;20140;-81
2022/08/05 17:44:36;;;;;;;5.70;3.80;;;;;;;;;;4791560;29;20189;-81
2022/08/05 17:53:59;;;;;;;1.73;0.45;;;;;;;;;;4824970;24;20065;-81
2022/08/05 17:56:25;;;;;;;1.45;0.30;;;;;;;;;;4809340;29;20041;-80
2022/08/05 18:02:02;;;;;;;0.90;0.40;;;;;;;;;;4809941;24;20139;-81
2022/08/05 18:18:56;;;;;;;7.97;3.60;;;;;;;;;;4814098;29;20148;-80
2022/08/05 18:21:40;;;;;;;14.68;3.72;;;;;;;;;;4766981;30;20066;-79
2022/08/05 18:24:12;;;;;;;3.90;1.00;;;;;;;;;;4745782;30;20073;-82
2022/08/05 18:39:37;;;;;;;4.40;0.50;;;;;;;;;;4821880;24;20057;-79
2022/08/05 18:42:27;;;;;;;2.90;0.70;;;;;;;;;;4804910;29;20042;-81
2022/08/05 18:48:22;;;;;;;5.90;1.15;;;;;;;;;;4816235;29;20049;-79
2022/08/05 18:53:32;;;;;;;3.85;0.68;;;;;;;;;;4820476;29;20051;-80
2022/08/05 18:55:58;;;;;;;7.47;1.35;;;;;;;;;;4803625;29;20081;-80
2022/08/05 18:58:25;;;;;;;5.18;0.82;;;;;;;;;;4818311;29;20370;-81
2022/08/05 19:00:51;;;;;;;5.13;1.05;;;;;;;;;;4787281;29;20038;-82